createdAt,value
2023-02-21T00:00:26.373Z,101125.75
2023-02-21T00:03:08.967Z,101124.38
2023-02-21T00:05:51.732Z,101114.97
2023-02-21T00:08:37.625Z,101071.34
2023-02-21T00:11:21.733Z,101079.84
2023-02-21T00:14:05.002Z,101122.75
2023-02-21T00:16:47.202Z,101067.50
2023-02-21T00:19:29.354Z,101118.25
2023-02-21T00:22:11.976Z,101118.84
2023-02-21T00:24:57.083Z,101064.38
2023-02-21T00:27:40.487Z,101127.63
2023-02-21T00:30:24.581Z,101094.06
2023-02-21T00:33:07.394Z,101140.69
2023-02-21T00:35:50.078Z,101117.44
2023-02-21T00:38:33.221Z,101114.63
2023-02-21T00:41:19.354Z,101101.56
2023-02-21T00:44:02.027Z,101123.28
2023-02-21T00:46:44.884Z,101114.69
2023-02-21T00:49:27.476Z,101130.97
2023-02-21T00:52:10.562Z,101095.78
2023-02-21T00:54:53.385Z,101116.56
2023-02-21T00:57:40.120Z,101078.56
2023-02-21T01:00:29.753Z,101131.66
2023-02-21T01:03:12.760Z,101095.84
2023-02-21T01:05:55.584Z,101123.72
2023-02-21T01:08:38.080Z,101130.34
2023-02-21T01:11:20.975Z,101029.31
2023-02-21T01:14:07.845Z,101119.53
2023-02-21T01:16:50.653Z,101104.13
2023-02-21T01:19:33.510Z,101087.78
2023-02-21T01:22:16.982Z,101125.59
2023-02-21T01:24:59.639Z,101090.38
2023-02-21T01:27:42.749Z,101131.72
2023-02-21T01:30:28.900Z,101122.53
2023-02-21T01:33:11.856Z,101119.91
2023-02-21T01:35:54.328Z,101110.69
2023-02-21T01:38:37.691Z,101145.31
2023-02-21T01:41:20.696Z,101117.72
2023-02-21T01:44:14.467Z,101134.88
2023-02-21T01:47:01.465Z,101120.19
2023-02-21T01:49:45.356Z,101140.91
2023-02-21T01:52:28.323Z,101108.97
2023-02-21T01:55:12.634Z,101130.59
2023-02-21T01:57:56.295Z,101130.84
2023-02-21T02:00:40.266Z,101132.47
2023-02-21T02:03:28.228Z,101150.75
2023-02-21T02:06:13.695Z,101136.97
2023-02-21T02:08:57.240Z,101151.63
2023-02-21T02:12:00.245Z,101140.34
2023-02-21T02:14:54.534Z,101156.53
2023-02-21T02:17:38.655Z,101131.66
2023-02-21T02:20:51.377Z,101139.16
2023-02-21T02:23:52.457Z,101154.03
2023-02-21T02:26:53.876Z,101136.81
2023-02-21T02:29:47.074Z,101159.22
2023-02-21T02:32:40.588Z,101136.63
2023-02-21T02:35:17.276Z,101128.31
2023-02-21T02:37:55.158Z,101154.22
2023-02-21T02:40:35.737Z,101132.50
2023-02-21T02:43:13.761Z,101078.66
2023-02-21T02:45:49.216Z,101129.69
2023-02-21T02:48:25.974Z,101161.75
2023-02-21T02:51:04.052Z,101145.13
2023-02-21T02:53:36.296Z,101146.19
2023-02-21T02:56:10.196Z,101150.69
2023-02-21T02:58:45.087Z,101087.47
2023-02-21T03:01:43.124Z,101102.38
2023-02-21T03:04:35.619Z,101141.84
2023-02-21T03:07:18.773Z,101094.91
2023-02-21T03:09:57.810Z,101138.66
2023-02-21T03:12:37.013Z,101128.16
2023-02-21T03:15:15.258Z,101063.13
2023-02-21T03:17:53.653Z,101121.34
2023-02-21T03:20:25.324Z,101132.59
2023-02-21T03:23:00.269Z,101148.22
2023-02-21T03:25:33.256Z,101155.53
2023-02-21T03:28:06.556Z,101118.44
2023-02-21T03:30:45.364Z,101154.56
2023-02-21T03:33:15.448Z,101150.97
2023-02-21T03:35:47.552Z,101155.13
2023-02-21T03:38:20.672Z,101147.53
2023-02-21T03:40:52.560Z,101140.69
2023-02-21T03:43:23.288Z,101137.94
2023-02-21T03:46:00.090Z,101099.03
2023-02-21T03:48:32.873Z,101108.66
2023-02-21T03:51:26.003Z,101090.75
2023-02-21T03:54:00.341Z,101155.63
2023-02-21T03:56:42.277Z,101133.81
2023-02-21T03:59:25.748Z,101128.50
2023-02-21T04:01:56.601Z,101115.41
2023-02-21T04:04:28.072Z,101134.63
2023-02-21T04:07:09.438Z,101149.69
2023-02-21T04:09:43.436Z,101112.53
2023-02-21T04:12:16.767Z,101147.34
2023-02-21T04:14:47.343Z,101148.94
2023-02-21T04:17:18.610Z,101146.31
2023-02-21T04:19:49.331Z,101154.91
2023-02-21T04:22:20.137Z,101153.91
2023-02-21T04:24:53.091Z,101148.13
2023-02-21T04:27:27.376Z,101150.44
2023-02-21T04:29:59.976Z,101123.81
2023-02-21T04:32:31.867Z,101104.03
2023-02-21T04:35:05.538Z,101150.00
2023-02-21T04:37:37.354Z,101138.03
2023-02-21T04:40:11.509Z,101143.09
2023-02-21T04:42:41.849Z,101141.44
2023-02-21T04:45:12.810Z,101125.06
2023-02-21T04:47:43.344Z,101128.75
2023-02-21T04:50:13.575Z,101118.31
2023-02-21T04:52:43.895Z,101060.31
2023-02-21T04:55:17.986Z,101130.31
2023-02-21T04:57:48.012Z,101127.16
2023-02-21T05:00:20.146Z,101129.44
2023-02-21T05:02:50.268Z,101125.28
2023-02-21T05:05:20.609Z,101102.81
2023-02-21T05:07:50.593Z,101101.34
2023-02-21T05:10:25.434Z,101098.88
2023-02-21T05:12:57.040Z,101130.44
2023-02-21T05:15:27.277Z,101123.00
2023-02-21T05:17:57.254Z,101121.19
2023-02-21T05:20:27.140Z,101113.53
2023-02-21T05:23:02.065Z,101117.50
2023-02-21T05:25:37.986Z,101075.97
2023-02-21T05:28:08.203Z,101125.97
2023-02-21T05:30:38.357Z,101118.50
2023-02-21T05:33:08.642Z,101105.50
2023-02-21T05:35:38.771Z,101105.56
2023-02-21T05:38:08.969Z,101093.69
2023-02-21T05:40:41.834Z,101108.91
2023-02-21T05:43:11.949Z,101129.84
2023-02-21T05:45:41.904Z,101130.50
2023-02-21T05:48:12.061Z,101118.44
2023-02-21T05:50:42.470Z,101115.88
2023-02-21T05:53:12.435Z,101063.00
2023-02-21T05:55:45.040Z,101133.94
2023-02-21T05:58:14.965Z,101129.72
2023-02-21T06:00:44.725Z,101059.56
2023-02-21T06:03:14.377Z,101125.44
2023-02-21T06:05:44.389Z,101122.66
2023-02-21T06:08:14.410Z,101126.22
2023-02-21T06:10:48.603Z,101090.81
2023-02-21T06:13:18.403Z,101109.66
2023-02-21T06:15:48.146Z,101115.78
2023-02-21T06:18:19.043Z,101073.56
2023-02-21T06:20:49.005Z,101058.38
2023-02-21T06:23:19.053Z,101057.16
2023-02-21T06:25:51.632Z,101038.34
2023-02-21T06:28:21.325Z,101122.06
2023-02-21T06:30:51.019Z,101121.19
2023-02-21T06:33:20.663Z,101097.13
2023-02-21T06:35:50.276Z,101117.72
2023-02-21T06:38:19.976Z,101130.09
2023-02-21T06:40:52.436Z,101104.91
2023-02-21T06:43:28.704Z,101133.53
2023-02-21T06:46:00.581Z,101142.03
2023-02-21T06:48:31.417Z,101159.06
2023-02-21T06:51:03.171Z,101151.91
2023-02-21T06:53:34.795Z,101135.81
2023-02-21T06:56:09.977Z,101132.00
2023-02-21T06:58:51.937Z,101171.47
2023-02-21T07:01:24.338Z,101174.03
2023-02-21T07:03:59.046Z,101136.81
2023-02-21T07:06:34.082Z,101098.97
2023-02-21T07:17:20.661Z,101167.94
2023-02-21T07:37:54.414Z,101024.25
2023-02-21T07:40:24.410Z,101176.09
2023-02-21T07:42:54.494Z,101191.88
2023-02-21T07:45:25.630Z,101176.03
2023-02-21T07:47:55.517Z,101175.44
2023-02-21T07:50:25.261Z,101192.19
2023-02-21T07:52:59.799Z,101152.94
2023-02-21T07:55:29.477Z,101204.59
2023-02-21T07:57:59.148Z,101202.47
2023-02-21T08:00:29.240Z,101193.75
2023-02-21T08:02:59.000Z,101201.53
2023-02-21T08:05:28.986Z,101196.06
2023-02-21T08:08:01.243Z,101207.47
2023-02-21T08:10:31.067Z,101195.47
2023-02-21T08:13:00.724Z,101209.69
2023-02-21T08:15:30.503Z,101196.06
2023-02-21T08:18:00.176Z,101214.13
2023-02-21T08:20:29.809Z,101202.94
2023-02-21T08:23:02.049Z,101221.06
2023-02-21T08:25:31.708Z,101222.72
2023-02-21T08:28:01.317Z,101201.38
2023-02-21T08:30:31.017Z,101218.63
2023-02-21T08:33:00.641Z,101244.13
2023-02-21T08:35:31.049Z,101182.88
2023-02-21T08:38:05.076Z,101239.75
2023-02-21T08:40:35.796Z,101244.28
2023-02-21T08:43:05.877Z,101228.53
2023-02-21T08:45:35.859Z,101243.22
2023-02-21T08:48:08.709Z,101224.03
2023-02-21T08:50:38.433Z,101186.91
2023-02-21T08:53:10.774Z,101190.38
2023-02-21T08:55:40.441Z,101243.91
2023-02-21T08:58:10.097Z,101236.84
2023-02-21T09:00:39.785Z,101228.34
2023-02-21T09:03:09.500Z,101222.22
2023-02-21T09:05:39.161Z,101216.56
2023-02-21T09:08:21.148Z,101272.63
2023-02-21T09:11:05.715Z,100946.06
2023-02-21T09:13:42.436Z,101262.84
2023-02-21T09:16:16.609Z,101262.84
2023-02-21T11:36:43.137Z,101247.41
2023-02-21T11:40:01.747Z,101107.00
2023-02-21T11:43:08.258Z,100980.94
2023-02-21T11:46:03.664Z,101110.53
2023-02-21T11:49:49.845Z,101253.88
2023-02-21T11:55:31.823Z,101089.16
2023-02-21T12:10:58.528Z,101087.47
2023-02-21T12:22:21.485Z,101174.22
2023-02-21T12:28:46.090Z,101136.41
2023-02-21T12:31:31.484Z,101167.84
2023-02-21T13:20:50.768Z,100906.53
2023-02-21T13:24:31.138Z,101095.25
2023-02-21T13:28:19.890Z,101064.16
2023-02-21T13:31:06.632Z,101073.06
2023-02-21T13:34:07.540Z,101053.97
2023-02-21T13:37:50.123Z,101056.50
2023-02-21T13:41:18.824Z,101049.47
2023-02-21T13:49:03.316Z,100891.25
2023-02-21T13:53:05.382Z,100915.19
2023-02-21T13:57:01.917Z,100927.94
2023-02-21T14:00:24.352Z,100918.53
2023-02-21T14:06:00.099Z,101199.72
2023-02-21T14:08:27.616Z,101189.22
2023-02-21T14:11:38.830Z,101219.03
2023-02-21T14:14:49.962Z,101145.00
2023-02-21T14:17:32.273Z,101204.44
2023-02-21T14:20:09.368Z,101060.75
2023-02-21T14:22:42.204Z,101042.28
2023-02-21T14:25:21.669Z,101175.84
2023-02-21T14:27:53.488Z,101164.38
2023-02-21T14:30:32.096Z,101190.28
2023-02-21T14:33:20.850Z,101165.94
2023-02-21T14:36:01.040Z,101161.38
2023-02-21T14:38:39.283Z,101071.38
2023-02-21T14:41:27.044Z,101170.97
2023-02-21T14:44:09.869Z,101199.28
2023-02-21T14:46:55.010Z,101192.44
2023-02-21T14:49:43.528Z,101180.06
2023-02-21T14:52:53.239Z,101197.59
2023-02-21T14:56:03.800Z,101176.91
2023-02-21T14:59:07.008Z,101196.97
2023-02-21T15:01:57.609Z,101193.63
2023-02-21T15:04:37.748Z,101191.13
2023-02-21T15:07:19.008Z,101197.97
2023-02-21T15:10:07.196Z,101180.03
2023-02-21T15:12:44.673Z,101180.16
2023-02-21T15:15:20.263Z,101194.00
2023-02-21T15:18:01.124Z,101193.28
2023-02-21T15:20:33.840Z,101195.03
2023-02-21T15:23:08.128Z,101177.66
2023-02-21T15:25:38.195Z,101174.75
2023-02-21T15:28:23.058Z,101171.78
2023-02-21T15:31:05.285Z,101175.38
2023-02-21T15:33:37.440Z,101142.78
2023-02-21T15:36:09.912Z,101188.38
2023-02-21T15:38:44.956Z,101171.19
2023-02-21T15:41:23.408Z,101184.03
2023-02-21T15:44:00.837Z,101158.97
2023-02-21T15:46:34.632Z,101184.94
2023-02-21T15:49:07.400Z,101172.09
2023-02-21T15:51:40.949Z,101166.97
2023-02-21T15:54:12.287Z,101171.78
2023-02-21T15:56:42.595Z,101177.41
2023-02-21T15:59:21.375Z,101172.63
2023-02-21T16:02:19.945Z,101173.56
2023-02-21T16:04:51.289Z,101187.66
2023-02-21T16:07:24.932Z,101181.56
2023-02-21T16:10:03.390Z,101184.63
2023-02-21T16:12:38.140Z,101146.84
2023-02-21T16:15:23.416Z,101189.03
2023-02-21T16:17:56.986Z,101192.94
2023-02-21T16:20:31.262Z,101193.34
2023-02-21T16:23:26.020Z,101190.38
2023-02-21T16:26:01.514Z,101200.78
2023-02-21T16:28:31.824Z,101171.88
2023-02-21T16:31:06.359Z,101196.16
2023-02-21T16:33:37.976Z,101169.25
2023-02-21T16:36:10.728Z,101170.47
2023-02-21T16:38:40.457Z,101189.63
2023-02-21T16:41:16.202Z,101197.94
2023-02-21T16:43:46.155Z,101183.75
2023-02-21T16:46:28.416Z,101198.44
2023-02-21T16:49:00.013Z,101169.00
2023-02-21T16:51:34.787Z,101171.16
2023-02-21T16:54:05.218Z,101216.13
2023-02-21T16:56:35.318Z,101209.84
2023-02-21T16:59:05.881Z,101210.97
2023-02-21T17:01:39.200Z,101209.28
2023-02-21T17:04:09.220Z,101226.75
2023-02-21T17:06:38.928Z,101218.75
2023-02-21T17:09:08.607Z,101222.25
2023-02-21T17:11:38.272Z,101212.50
2023-02-21T17:14:07.910Z,101209.03
2023-02-21T17:16:40.264Z,101200.31
2023-02-21T17:19:12.557Z,101216.06
2023-02-21T17:21:42.367Z,101205.47
2023-02-21T17:24:14.086Z,101205.47
2023-02-21T17:26:44.145Z,101215.47
2023-02-21T17:29:14.460Z,101224.44
2023-02-21T17:31:46.786Z,101235.78
2023-02-21T17:34:16.617Z,101218.25
2023-02-21T17:36:46.333Z,101227.31
2023-02-21T18:24:13.266Z,101212.81
2023-02-21T18:26:42.955Z,101238.75
2023-02-21T18:29:12.655Z,101236.03
2023-02-21T18:31:47.587Z,101254.94
2023-02-21T18:34:21.267Z,101242.75
2023-02-21T18:36:56.228Z,101252.94
2023-02-21T23:19:45.099Z,101132.28
2023-02-21T23:22:17.403Z,101104.53
2023-02-21T23:24:47.206Z,101081.13
2023-02-21T23:27:16.875Z,101100.06
2023-02-21T23:29:47.890Z,101080.97
2023-02-21T23:32:17.565Z,101087.00
2023-02-21T23:34:50.836Z,101117.41
2023-02-21T23:37:23.110Z,101091.81
2023-02-21T23:39:52.716Z,101118.41
2023-02-21T23:42:23.815Z,101109.78
2023-02-21T23:44:54.505Z,101118.44
2023-02-21T23:47:24.225Z,101113.28
2023-02-21T23:49:58.109Z,101107.41
2023-02-21T23:52:30.487Z,101079.75
2023-02-21T23:55:00.444Z,101032.03
2023-02-21T23:57:31.436Z,101115.13
